Terminal Aerodrome Forecast
Issued by NWS

Home | Current Version | Previous Version | Text Only | Print | Product List | Glossary On
Versions: 1 2 3 4 5 6 7 8 9 10 11 12 13 14 15
000
FTPA31 PHFO 261740
TAFHKO
TAF
PHKO 261740Z 2618/2718 VRB05KT P6SM VCSH SCT045 BKN060
     FM261900 24011KT P6SM VCSH SCT060
     FM270500 18008KT P6SM VCSH SCT025 BKN060
     FM271400 07005KT P6SM VCSH SCT025 BKN050=

USA.gov is the U.S. government's official web portal to all federal, state and local government web resources and services.